sensor_id;sensor_type;location;lat;lon;timestamp;P1;durP1;ratioP1;P2;durP2;ratioP2
13797;SDS011;6970;51.340;3.240;2023-04-03T00:01:11;7.53;;;3.67;;
13797;SDS011;6970;51.340;3.240;2023-04-03T00:03:39;6.57;;;3.37;;
13797;SDS011;6970;51.340;3.240;2023-04-03T00:06:09;9.90;;;3.93;;
13797;SDS011;6970;51.340;3.240;2023-04-03T00:08:37;4.20;;;3.40;;
13797;SDS011;6970;51.340;3.240;2023-04-03T00:11:05;8.83;;;3.43;;
13797;SDS011;6970;51.340;3.240;2023-04-03T00:13:32;5.63;;;3.43;;
13797;SDS011;6970;51.340;3.240;2023-04-03T00:16:00;7.17;;;3.63;;
13797;SDS011;6970;51.340;3.240;2023-04-03T00:18:28;4.10;;;3.37;;
13797;SDS011;6970;51.340;3.240;2023-04-03T00:20:55;5.93;;;3.50;;
13797;SDS011;6970;51.340;3.240;2023-04-03T00:23:22;7.33;;;3.80;;
13797;SDS011;6970;51.340;3.240;2023-04-03T00:25:50;8.90;;;3.37;;
13797;SDS011;6970;51.340;3.240;2023-04-03T00:28:17;4.40;;;3.33;;
13797;SDS011;6970;51.340;3.240;2023-04-03T00:30:44;10.13;;;4.30;;
13797;SDS011;6970;51.340;3.240;2023-04-03T00:33:12;7.83;;;3.53;;
13797;SDS011;6970;51.340;3.240;2023-04-03T00:35:39;8.83;;;3.93;;
13797;SDS011;6970;51.340;3.240;2023-04-03T00:38:07;5.77;;;3.90;;
13797;SDS011;6970;51.340;3.240;2023-04-03T00:40:36;7.47;;;3.90;;
13797;SDS011;6970;51.340;3.240;2023-04-03T00:43:15;9.33;;;3.87;;
13797;SDS011;6970;51.340;3.240;2023-04-03T00:45:50;8.53;;;3.83;;
13797;SDS011;6970;51.340;3.240;2023-04-03T00:48:20;5.03;;;3.90;;
13797;SDS011;6970;51.340;3.240;2023-04-03T00:50:57;7.83;;;3.93;;
13797;SDS011;6970;51.340;3.240;2023-04-03T00:53:26;8.00;;;3.87;;
13797;SDS011;6970;51.340;3.240;2023-04-03T00:55:57;10.63;;;3.80;;
13797;SDS011;6970;51.340;3.240;2023-04-03T00:58:30;6.10;;;3.70;;
13797;SDS011;6970;51.340;3.240;2023-04-03T01:01:26;11.43;;;4.23;;
13797;SDS011;6970;51.340;3.240;2023-04-03T01:03:55;5.97;;;4.03;;
13797;SDS011;6970;51.340;3.240;2023-04-03T01:06:24;4.00;;;3.10;;
13797;SDS011;6970;51.340;3.240;2023-04-03T01:09:00;4.83;;;3.23;;
13797;SDS011;6970;51.340;3.240;2023-04-03T01:11:27;4.13;;;2.93;;
13797;SDS011;6970;51.340;3.240;2023-04-03T01:13:54;7.20;;;3.60;;
13797;SDS011;6970;51.340;3.240;2023-04-03T01:16:22;3.60;;;3.30;;
13797;SDS011;6970;51.340;3.240;2023-04-03T01:18:49;6.77;;;4.00;;
13797;SDS011;6970;51.340;3.240;2023-04-03T01:27:02;7.10;;;3.50;;
13797;SDS011;6970;51.340;3.240;2023-04-03T01:29:32;5.70;;;3.60;;
13797;SDS011;6970;51.340;3.240;2023-04-03T01:32:00;5.70;;;3.53;;
13797;SDS011;6970;51.340;3.240;2023-04-03T01:34:28;5.57;;;3.07;;
13797;SDS011;6970;51.340;3.240;2023-04-03T01:36:55;5.50;;;3.50;;
13797;SDS011;6970;51.340;3.240;2023-04-03T01:39:22;5.83;;;3.40;;
13797;SDS011;6970;51.340;3.240;2023-04-03T01:41:50;4.13;;;3.30;;
13797;SDS011;6970;51.340;3.240;2023-04-03T01:44:17;6.10;;;3.53;;
13797;SDS011;6970;51.340;3.240;2023-04-03T01:46:44;3.03;;;2.73;;
13797;SDS011;6970;51.340;3.240;2023-04-03T01:49:11;3.33;;;3.10;;
13797;SDS011;6970;51.340;3.240;2023-04-03T01:51:38;4.77;;;2.90;;
13797;SDS011;6970;51.340;3.240;2023-04-03T01:54:05;6.30;;;3.10;;
13797;SDS011;6970;51.340;3.240;2023-04-03T01:56:31;2.57;;;2.37;;
13797;SDS011;6970;51.340;3.240;2023-04-03T01:58:58;5.97;;;3.10;;
13797;SDS011;6970;51.340;3.240;2023-04-03T02:01:25;7.20;;;3.00;;
13797;SDS011;6970;51.340;3.240;2023-04-03T02:03:52;3.53;;;2.90;;
13797;SDS011;6970;51.340;3.240;2023-04-03T02:06:20;4.30;;;2.50;;
13797;SDS011;6970;51.340;3.240;2023-04-03T02:08:46;3.47;;;2.80;;
13797;SDS011;6970;51.340;3.240;2023-04-03T02:11:13;3.73;;;2.67;;
13797;SDS011;6970;51.340;3.240;2023-04-03T02:13:40;3.33;;;2.53;;
13797;SDS011;6970;51.340;3.240;2023-04-03T02:16:08;4.43;;;2.70;;
13797;SDS011;6970;51.340;3.240;2023-04-03T02:18:37;3.90;;;2.60;;
13797;SDS011;6970;51.340;3.240;2023-04-03T02:21:04;2.90;;;2.37;;
13797;SDS011;6970;51.340;3.240;2023-04-03T02:23:32;3.07;;;2.63;;
13797;SDS011;6970;51.340;3.240;2023-04-03T02:26:03;3.87;;;2.27;;
13797;SDS011;6970;51.340;3.240;2023-04-03T02:28:35;6.03;;;2.67;;
13797;SDS011;6970;51.340;3.240;2023-04-03T02:31:03;4.63;;;2.13;;
13797;SDS011;6970;51.340;3.240;2023-04-03T02:33:32;3.60;;;2.50;;
13797;SDS011;6970;51.340;3.240;2023-04-03T02:36:00;2.70;;;2.50;;
13797;SDS011;6970;51.340;3.240;2023-04-03T02:38:27;3.03;;;2.70;;
13797;SDS011;6970;51.340;3.240;2023-04-03T02:40:59;4.43;;;3.17;;
13797;SDS011;6970;51.340;3.240;2023-04-03T02:43:27;4.67;;;3.20;;
13797;SDS011;6970;51.340;3.240;2023-04-03T02:45:54;5.57;;;2.90;;
13797;SDS011;6970;51.340;3.240;2023-04-03T02:48:21;5.67;;;2.70;;
13797;SDS011;6970;51.340;3.240;2023-04-03T02:50:48;3.40;;;2.30;;
13797;SDS011;6970;51.340;3.240;2023-04-03T02:53:15;3.40;;;2.40;;
13797;SDS011;6970;51.340;3.240;2023-04-03T02:55:43;3.07;;;2.57;;
13797;SDS011;6970;51.340;3.240;2023-04-03T02:58:11;3.87;;;2.47;;
13797;SDS011;6970;51.340;3.240;2023-04-03T03:00:38;4.30;;;2.77;;
13797;SDS011;6970;51.340;3.240;2023-04-03T03:03:06;3.17;;;2.37;;
13797;SDS011;6970;51.340;3.240;2023-04-03T03:05:33;5.53;;;2.90;;
13797;SDS011;6970;51.340;3.240;2023-04-03T03:08:00;2.80;;;2.00;;
13797;SDS011;6970;51.340;3.240;2023-04-03T03:10:27;2.97;;;2.00;;
13797;SDS011;6970;51.340;3.240;2023-04-03T03:12:54;3.33;;;2.63;;
13797;SDS011;6970;51.340;3.240;2023-04-03T03:15:21;2.63;;;2.20;;
13797;SDS011;6970;51.340;3.240;2023-04-03T03:17:48;3.90;;;2.27;;
13797;SDS011;6970;51.340;3.240;2023-04-03T03:20:16;2.90;;;2.60;;
13797;SDS011;6970;51.340;3.240;2023-04-03T03:22:43;2.70;;;2.50;;
13797;SDS011;6970;51.340;3.240;2023-04-03T03:25:10;2.43;;;2.20;;
13797;SDS011;6970;51.340;3.240;2023-04-03T03:27:37;2.73;;;2.30;;
13797;SDS011;6970;51.340;3.240;2023-04-03T03:30:04;3.27;;;2.60;;
13797;SDS011;6970;51.340;3.240;2023-04-03T03:32:32;4.03;;;2.50;;
13797;SDS011;6970;51.340;3.240;2023-04-03T03:34:59;4.17;;;2.60;;
13797;SDS011;6970;51.340;3.240;2023-04-03T03:37:26;2.40;;;2.17;;
13797;SDS011;6970;51.340;3.240;2023-04-03T03:39:53;4.70;;;2.87;;
13797;SDS011;6970;51.340;3.240;2023-04-03T03:42:21;3.30;;;2.33;;
13797;SDS011;6970;51.340;3.240;2023-04-03T03:44:48;4.27;;;2.50;;
13797;SDS011;6970;51.340;3.240;2023-04-03T03:47:15;4.27;;;2.70;;
13797;SDS011;6970;51.340;3.240;2023-04-03T03:49:42;6.83;;;2.97;;
13797;SDS011;6970;51.340;3.240;2023-04-03T03:52:09;3.17;;;2.23;;
13797;SDS011;6970;51.340;3.240;2023-04-03T03:54:37;3.43;;;2.40;;
13797;SDS011;6970;51.340;3.240;2023-04-03T03:57:04;2.50;;;2.27;;
13797;SDS011;6970;51.340;3.240;2023-04-03T03:59:33;2.80;;;2.50;;
13797;SDS011;6970;51.340;3.240;2023-04-03T04:02:00;3.97;;;2.73;;
13797;SDS011;6970;51.340;3.240;2023-04-03T04:04:27;2.90;;;2.70;;
13797;SDS011;6970;51.340;3.240;2023-04-03T04:06:54;3.47;;;2.70;;
13797;SDS011;6970;51.340;3.240;2023-04-03T04:09:21;5.00;;;3.00;;
13797;SDS011;6970;51.340;3.240;2023-04-03T04:11:48;3.00;;;2.70;;
13797;SDS011;6970;51.340;3.240;2023-04-03T04:14:15;3.87;;;2.97;;
13797;SDS011;6970;51.340;3.240;2023-04-03T04:16:44;3.70;;;2.63;;
13797;SDS011;6970;51.340;3.240;2023-04-03T04:19:12;4.50;;;2.73;;
13797;SDS011;6970;51.340;3.240;2023-04-03T04:21:40;4.63;;;3.37;;
13797;SDS011;6970;51.340;3.240;2023-04-03T04:24:08;3.20;;;2.90;;
13797;SDS011;6970;51.340;3.240;2023-04-03T04:26:35;3.83;;;3.03;;
13797;SDS011;6970;51.340;3.240;2023-04-03T04:29:02;3.50;;;3.20;;
13797;SDS011;6970;51.340;3.240;2023-04-03T04:31:29;5.23;;;3.33;;
13797;SDS011;6970;51.340;3.240;2023-04-03T04:33:56;4.27;;;3.47;;
13797;SDS011;6970;51.340;3.240;2023-04-03T04:36:23;4.10;;;3.67;;
13797;SDS011;6970;51.340;3.240;2023-04-03T04:38:50;3.80;;;2.97;;
13797;SDS011;6970;51.340;3.240;2023-04-03T04:41:19;4.47;;;3.40;;
13797;SDS011;6970;51.340;3.240;2023-04-03T04:43:48;5.07;;;3.53;;
13797;SDS011;6970;51.340;3.240;2023-04-03T04:46:16;7.83;;;4.80;;
13797;SDS011;6970;51.340;3.240;2023-04-03T04:48:44;5.30;;;2.97;;
13797;SDS011;6970;51.340;3.240;2023-04-03T04:51:11;4.67;;;2.87;;
13797;SDS011;6970;51.340;3.240;2023-04-03T04:53:38;3.80;;;3.00;;
13797;SDS011;6970;51.340;3.240;2023-04-03T04:56:05;5.10;;;3.43;;
13797;SDS011;6970;51.340;3.240;2023-04-03T04:58:32;5.23;;;3.53;;
13797;SDS011;6970;51.340;3.240;2023-04-03T05:01:00;4.37;;;3.67;;
13797;SDS011;6970;51.340;3.240;2023-04-03T05:03:32;3.77;;;3.17;;
13797;SDS011;6970;51.340;3.240;2023-04-03T05:06:00;4.80;;;3.80;;
13797;SDS011;6970;51.340;3.240;2023-04-03T05:08:27;3.73;;;3.43;;
13797;SDS011;6970;51.340;3.240;2023-04-03T05:10:54;4.07;;;3.57;;
13797;SDS011;6970;51.340;3.240;2023-04-03T05:13:21;5.77;;;3.83;;
13797;SDS011;6970;51.340;3.240;2023-04-03T05:15:48;5.50;;;3.70;;
13797;SDS011;6970;51.340;3.240;2023-04-03T05:18:15;6.33;;;4.03;;
13797;SDS011;6970;51.340;3.240;2023-04-03T05:20:43;5.07;;;4.57;;
13797;SDS011;6970;51.340;3.240;2023-04-03T05:23:11;6.63;;;4.53;;
13797;SDS011;6970;51.340;3.240;2023-04-03T05:25:38;4.37;;;3.93;;
13797;SDS011;6970;51.340;3.240;2023-04-03T05:28:05;4.37;;;3.97;;
13797;SDS011;6970;51.340;3.240;2023-04-03T05:30:33;4.70;;;4.17;;
13797;SDS011;6970;51.340;3.240;2023-04-03T05:33:00;6.87;;;4.53;;
13797;SDS011;6970;51.340;3.240;2023-04-03T05:35:27;5.87;;;4.30;;
13797;SDS011;6970;51.340;3.240;2023-04-03T05:37:54;5.87;;;4.13;;
13797;SDS011;6970;51.340;3.240;2023-04-03T05:40:21;7.30;;;4.97;;
13797;SDS011;6970;51.340;3.240;2023-04-03T05:42:48;4.80;;;3.60;;
13797;SDS011;6970;51.340;3.240;2023-04-03T05:45:15;6.63;;;4.57;;
13797;SDS011;6970;51.340;3.240;2023-04-03T05:47:43;6.30;;;4.30;;
13797;SDS011;6970;51.340;3.240;2023-04-03T05:50:10;7.53;;;5.30;;
13797;SDS011;6970;51.340;3.240;2023-04-03T05:52:37;6.93;;;4.53;;
13797;SDS011;6970;51.340;3.240;2023-04-03T05:55:06;4.60;;;4.07;;
13797;SDS011;6970;51.340;3.240;2023-04-03T05:57:33;6.93;;;4.40;;
13797;SDS011;6970;51.340;3.240;2023-04-03T06:00:03;6.47;;;4.83;;
13797;SDS011;6970;51.340;3.240;2023-04-03T06:02:32;5.23;;;4.73;;
13797;SDS011;6970;51.340;3.240;2023-04-03T06:04:59;8.63;;;5.40;;
13797;SDS011;6970;51.340;3.240;2023-04-03T06:07:26;7.47;;;4.50;;
13797;SDS011;6970;51.340;3.240;2023-04-03T06:09:55;6.57;;;4.70;;
13797;SDS011;6970;51.340;3.240;2023-04-03T06:12:23;5.17;;;4.67;;
13797;SDS011;6970;51.340;3.240;2023-04-03T06:14:50;6.73;;;5.13;;
13797;SDS011;6970;51.340;3.240;2023-04-03T06:17:17;5.33;;;4.53;;
13797;SDS011;6970;51.340;3.240;2023-04-03T06:19:44;5.70;;;5.13;;
13797;SDS011;6970;51.340;3.240;2023-04-03T06:22:12;8.83;;;4.70;;
13797;SDS011;6970;51.340;3.240;2023-04-03T06:24:40;6.77;;;5.20;;
13797;SDS011;6970;51.340;3.240;2023-04-03T06:27:08;6.53;;;5.63;;
13797;SDS011;6970;51.340;3.240;2023-04-03T06:29:37;6.40;;;4.57;;
13797;SDS011;6970;51.340;3.240;2023-04-03T06:32:04;7.70;;;5.30;;
13797;SDS011;6970;51.340;3.240;2023-04-03T06:34:31;5.33;;;4.33;;
13797;SDS011;6970;51.340;3.240;2023-04-03T06:36:58;7.77;;;4.57;;
13797;SDS011;6970;51.340;3.240;2023-04-03T06:39:25;6.50;;;4.27;;
13797;SDS011;6970;51.340;3.240;2023-04-03T06:41:52;5.00;;;4.47;;
13797;SDS011;6970;51.340;3.240;2023-04-03T06:44:19;5.23;;;4.60;;
13797;SDS011;6970;51.340;3.240;2023-04-03T06:46:46;10.20;;;5.23;;
13797;SDS011;6970;51.340;3.240;2023-04-03T06:49:13;7.07;;;4.70;;
13797;SDS011;6970;51.340;3.240;2023-04-03T06:51:41;5.33;;;4.67;;
13797;SDS011;6970;51.340;3.240;2023-04-03T06:54:08;6.70;;;5.00;;
13797;SDS011;6970;51.340;3.240;2023-04-03T06:56:35;5.77;;;5.20;;
13797;SDS011;6970;51.340;3.240;2023-04-03T06:59:03;5.27;;;4.67;;
13797;SDS011;6970;51.340;3.240;2023-04-03T07:01:30;5.60;;;5.20;;
13797;SDS011;6970;51.340;3.240;2023-04-03T07:03:57;5.87;;;4.57;;
13797;SDS011;6970;51.340;3.240;2023-04-03T07:06:24;7.27;;;4.97;;
13797;SDS011;6970;51.340;3.240;2023-04-03T07:08:53;6.00;;;5.07;;
13797;SDS011;6970;51.340;3.240;2023-04-03T07:11:21;5.13;;;4.63;;
13797;SDS011;6970;51.340;3.240;2023-04-03T07:13:48;7.53;;;4.87;;
13797;SDS011;6970;51.340;3.240;2023-04-03T07:16:16;7.63;;;4.80;;
13797;SDS011;6970;51.340;3.240;2023-04-03T07:18:44;6.90;;;4.43;;
13797;SDS011;6970;51.340;3.240;2023-04-03T07:21:11;6.27;;;4.70;;
13797;SDS011;6970;51.340;3.240;2023-04-03T07:23:38;6.00;;;4.80;;
13797;SDS011;6970;51.340;3.240;2023-04-03T07:26:05;6.63;;;4.57;;
13797;SDS011;6970;51.340;3.240;2023-04-03T07:28:34;5.83;;;4.33;;
13797;SDS011;6970;51.340;3.240;2023-04-03T07:31:05;5.87;;;4.63;;
13797;SDS011;6970;51.340;3.240;2023-04-03T07:33:35;4.77;;;4.03;;
13797;SDS011;6970;51.340;3.240;2023-04-03T07:36:04;6.23;;;4.63;;
13797;SDS011;6970;51.340;3.240;2023-04-03T07:38:33;5.50;;;4.27;;
13797;SDS011;6970;51.340;3.240;2023-04-03T07:41:02;5.73;;;4.20;;
13797;SDS011;6970;51.340;3.240;2023-04-03T07:43:29;8.90;;;4.53;;
13797;SDS011;6970;51.340;3.240;2023-04-03T07:45:56;4.90;;;3.43;;
13797;SDS011;6970;51.340;3.240;2023-04-03T07:48:24;3.50;;;3.20;;
13797;SDS011;6970;51.340;3.240;2023-04-03T07:50:52;7.90;;;3.80;;
13797;SDS011;6970;51.340;3.240;2023-04-03T07:53:19;6.03;;;3.80;;
13797;SDS011;6970;51.340;3.240;2023-04-03T07:55:47;4.43;;;3.60;;
13797;SDS011;6970;51.340;3.240;2023-04-03T07:58:16;5.17;;;3.30;;
13797;SDS011;6970;51.340;3.240;2023-04-03T08:00:44;6.40;;;3.97;;
13797;SDS011;6970;51.340;3.240;2023-04-03T08:03:11;5.40;;;4.40;;
13797;SDS011;6970;51.340;3.240;2023-04-03T08:05:40;4.30;;;3.60;;
13797;SDS011;6970;51.340;3.240;2023-04-03T08:08:09;3.73;;;2.90;;
13797;SDS011;6970;51.340;3.240;2023-04-03T08:10:38;5.07;;;3.40;;
13797;SDS011;6970;51.340;3.240;2023-04-03T08:13:05;3.90;;;3.37;;
13797;SDS011;6970;51.340;3.240;2023-04-03T08:15:32;8.30;;;3.60;;
13797;SDS011;6970;51.340;3.240;2023-04-03T08:17:59;6.30;;;3.83;;
13797;SDS011;6970;51.340;3.240;2023-04-03T08:20:27;6.90;;;3.97;;
13797;SDS011;6970;51.340;3.240;2023-04-03T08:22:55;7.97;;;4.43;;
13797;SDS011;6970;51.340;3.240;2023-04-03T08:25:22;6.13;;;3.60;;
13797;SDS011;6970;51.340;3.240;2023-04-03T08:27:49;5.30;;;3.57;;
13797;SDS011;6970;51.340;3.240;2023-04-03T08:30:16;5.80;;;4.00;;
13797;SDS011;6970;51.340;3.240;2023-04-03T08:32:43;8.13;;;4.00;;
13797;SDS011;6970;51.340;3.240;2023-04-03T08:35:11;6.00;;;3.70;;
13797;SDS011;6970;51.340;3.240;2023-04-03T08:37:38;5.33;;;3.73;;
13797;SDS011;6970;51.340;3.240;2023-04-03T08:40:07;5.53;;;3.83;;
13797;SDS011;6970;51.340;3.240;2023-04-03T08:43:03;6.23;;;3.70;;
13797;SDS011;6970;51.340;3.240;2023-04-03T08:50:55;5.53;;;3.87;;
13797;SDS011;6970;51.340;3.240;2023-04-03T08:53:29;5.47;;;3.57;;
13797;SDS011;6970;51.340;3.240;2023-04-03T08:56:02;3.63;;;3.27;;
13797;SDS011;6970;51.340;3.240;2023-04-03T08:58:49;4.00;;;3.60;;
13797;SDS011;6970;51.340;3.240;2023-04-03T09:03:51;6.37;;;3.57;;
13797;SDS011;6970;51.340;3.240;2023-04-03T09:14:21;5.93;;;3.60;;
13797;SDS011;6970;51.340;3.240;2023-04-03T09:16:56;4.77;;;3.20;;
13797;SDS011;6970;51.340;3.240;2023-04-03T09:24:46;5.70;;;2.97;;
13797;SDS011;6970;51.340;3.240;2023-04-03T09:27:18;3.80;;;2.93;;
13797;SDS011;6970;51.340;3.240;2023-04-03T09:29:46;3.70;;;2.80;;
13797;SDS011;6970;51.340;3.240;2023-04-03T09:32:21;5.40;;;2.90;;
13797;SDS011;6970;51.340;3.240;2023-04-03T09:34:54;5.33;;;2.80;;
13797;SDS011;6970;51.340;3.240;2023-04-03T09:37:44;6.17;;;2.83;;
13797;SDS011;6970;51.340;3.240;2023-04-03T09:40:36;5.20;;;2.87;;
13797;SDS011;6970;51.340;3.240;2023-04-03T09:45:47;6.27;;;2.77;;
13797;SDS011;6970;51.340;3.240;2023-04-03T09:48:16;3.60;;;2.40;;
13797;SDS011;6970;51.340;3.240;2023-04-03T09:53:26;5.73;;;2.53;;
13797;SDS011;6970;51.340;3.240;2023-04-03T09:55:55;5.27;;;2.60;;
13797;SDS011;6970;51.340;3.240;2023-04-03T09:58:45;5.03;;;2.60;;
13797;SDS011;6970;51.340;3.240;2023-04-03T10:01:30;5.37;;;2.80;;
13797;SDS011;6970;51.340;3.240;2023-04-03T10:04:18;7.03;;;3.37;;
13797;SDS011;6970;51.340;3.240;2023-04-03T10:06:47;5.67;;;3.33;;
13797;SDS011;6970;51.340;3.240;2023-04-03T10:09:28;5.33;;;2.37;;
13797;SDS011;6970;51.340;3.240;2023-04-03T10:12:00;2.73;;;2.10;;
13797;SDS011;6970;51.340;3.240;2023-04-03T10:14:36;4.03;;;2.07;;
13797;SDS011;6970;51.340;3.240;2023-04-03T10:27:59;12.63;;;2.57;;
13797;SDS011;6970;51.340;3.240;2023-04-03T10:33:01;11.17;;;2.67;;
13797;SDS011;6970;51.340;3.240;2023-04-03T10:41:44;7.07;;;2.20;;
13797;SDS011;6970;51.340;3.240;2023-04-03T10:43:44;10.53;;;2.40;;
13797;SDS011;6970;51.340;3.240;2023-04-03T10:46:39;12.63;;;2.73;;
13797;SDS011;6970;51.340;3.240;2023-04-03T10:49:29;7.43;;;2.33;;
13797;SDS011;6970;51.340;3.240;2023-04-03T10:57:42;8.20;;;3.03;;
13797;SDS011;6970;51.340;3.240;2023-04-03T11:05:23;6.70;;;2.27;;
13797;SDS011;6970;51.340;3.240;2023-04-03T11:10:56;9.90;;;2.87;;
13797;SDS011;6970;51.340;3.240;2023-04-03T11:16:23;3.90;;;2.10;;
13797;SDS011;6970;51.340;3.240;2023-04-03T11:21:26;9.53;;;2.80;;
13797;SDS011;6970;51.340;3.240;2023-04-03T11:23:56;9.13;;;2.33;;
13797;SDS011;6970;51.340;3.240;2023-04-03T11:26:27;4.93;;;2.10;;
13797;SDS011;6970;51.340;3.240;2023-04-03T11:29:00;5.57;;;2.17;;
13797;SDS011;6970;51.340;3.240;2023-04-03T11:36:50;4.93;;;2.00;;
13797;SDS011;6970;51.340;3.240;2023-04-03T11:45:00;6.37;;;1.90;;
13797;SDS011;6970;51.340;3.240;2023-04-03T11:47:48;3.47;;;1.60;;
13797;SDS011;6970;51.340;3.240;2023-04-03T12:01:11;3.90;;;1.50;;
13797;SDS011;6970;51.340;3.240;2023-04-03T12:06:42;2.90;;;1.13;;
13797;SDS011;6970;51.340;3.240;2023-04-03T12:09:04;5.17;;;1.80;;
13797;SDS011;6970;51.340;3.240;2023-04-03T12:12:34;2.43;;;1.37;;
13797;SDS011;6970;51.340;3.240;2023-04-03T12:17:50;5.73;;;1.40;;
13797;SDS011;6970;51.340;3.240;2023-04-03T12:26:30;4.60;;;1.60;;
13797;SDS011;6970;51.340;3.240;2023-04-03T12:28:57;4.00;;;1.50;;
13797;SDS011;6970;51.340;3.240;2023-04-03T12:31:25;10.53;;;1.73;;
13797;SDS011;6970;51.340;3.240;2023-04-03T12:36:39;6.43;;;1.90;;
13797;SDS011;6970;51.340;3.240;2023-04-03T12:42:10;12.93;;;2.40;;
13797;SDS011;6970;51.340;3.240;2023-04-03T12:44:59;7.67;;;1.47;;
13797;SDS011;6970;51.340;3.240;2023-04-03T12:47:36;3.83;;;1.17;;
13797;SDS011;6970;51.340;3.240;2023-04-03T12:50:04;8.63;;;1.67;;
13797;SDS011;6970;51.340;3.240;2023-04-03T12:52:45;8.73;;;1.50;;
13797;SDS011;6970;51.340;3.240;2023-04-03T12:55:26;3.83;;;1.37;;
13797;SDS011;6970;51.340;3.240;2023-04-03T12:57:54;5.27;;;1.80;;
13797;SDS011;6970;51.340;3.240;2023-04-03T13:00:34;1.83;;;1.23;;
13797;SDS011;6970;51.340;3.240;2023-04-03T13:03:02;2.20;;;1.13;;
13797;SDS011;6970;51.340;3.240;2023-04-03T13:05:31;1.97;;;1.03;;
13797;SDS011;6970;51.340;3.240;2023-04-03T13:08:07;2.17;;;1.00;;
13797;SDS011;6970;51.340;3.240;2023-04-03T13:10:55;2.53;;;1.00;;
13797;SDS011;6970;51.340;3.240;2023-04-03T13:13:28;1.97;;;1.20;;
13797;SDS011;6970;51.340;3.240;2023-04-03T13:15:56;7.00;;;2.20;;
13797;SDS011;6970;51.340;3.240;2023-04-03T13:18:42;6.63;;;1.77;;
13797;SDS011;6970;51.340;3.240;2023-04-03T13:21:15;10.50;;;2.07;;
13797;SDS011;6970;51.340;3.240;2023-04-03T13:23:47;5.17;;;1.80;;
13797;SDS011;6970;51.340;3.240;2023-04-03T13:26:24;6.80;;;2.37;;
13797;SDS011;6970;51.340;3.240;2023-04-03T13:29:00;9.17;;;2.30;;
13797;SDS011;6970;51.340;3.240;2023-04-03T13:31:32;10.90;;;2.57;;
13797;SDS011;6970;51.340;3.240;2023-04-03T13:36:41;7.43;;;2.20;;
13797;SDS011;6970;51.340;3.240;2023-04-03T13:41:42;6.37;;;2.43;;
13797;SDS011;6970;51.340;3.240;2023-04-03T13:47:01;13.00;;;2.57;;
13797;SDS011;6970;51.340;3.240;2023-04-03T13:52:28;4.77;;;1.87;;
13797;SDS011;6970;51.340;3.240;2023-04-03T13:55:09;9.07;;;1.97;;
13797;SDS011;6970;51.340;3.240;2023-04-03T13:58:23;8.20;;;2.43;;
13797;SDS011;6970;51.340;3.240;2023-04-03T14:00:54;6.33;;;2.00;;
13797;SDS011;6970;51.340;3.240;2023-04-03T14:06:11;7.33;;;1.90;;
13797;SDS011;6970;51.340;3.240;2023-04-03T14:08:40;7.13;;;2.00;;
13797;SDS011;6970;51.340;3.240;2023-04-03T14:11:13;5.07;;;2.03;;
13797;SDS011;6970;51.340;3.240;2023-04-03T14:13:48;4.53;;;1.60;;
13797;SDS011;6970;51.340;3.240;2023-04-03T14:16:23;13.33;;;3.00;;
13797;SDS011;6970;51.340;3.240;2023-04-03T14:18:53;4.27;;;1.83;;
13797;SDS011;6970;51.340;3.240;2023-04-03T14:21:20;9.20;;;2.10;;
13797;SDS011;6970;51.340;3.240;2023-04-03T14:23:48;10.53;;;2.13;;
13797;SDS011;6970;51.340;3.240;2023-04-03T14:26:17;6.70;;;1.37;;
13797;SDS011;6970;51.340;3.240;2023-04-03T14:28:47;7.90;;;2.13;;
13797;SDS011;6970;51.340;3.240;2023-04-03T14:31:16;17.77;;;2.57;;
13797;SDS011;6970;51.340;3.240;2023-04-03T14:33:45;7.23;;;2.07;;
13797;SDS011;6970;51.340;3.240;2023-04-03T14:36:31;6.40;;;2.13;;
13797;SDS011;6970;51.340;3.240;2023-04-03T14:38:59;12.97;;;1.90;;
13797;SDS011;6970;51.340;3.240;2023-04-03T14:41:27;7.87;;;1.63;;
13797;SDS011;6970;51.340;3.240;2023-04-03T14:43:55;4.10;;;1.97;;
13797;SDS011;6970;51.340;3.240;2023-04-03T14:46:30;2.07;;;1.37;;
13797;SDS011;6970;51.340;3.240;2023-04-03T14:49:20;6.17;;;1.77;;
13797;SDS011;6970;51.340;3.240;2023-04-03T14:51:50;5.47;;;2.03;;
13797;SDS011;6970;51.340;3.240;2023-04-03T14:54:18;4.43;;;1.53;;
13797;SDS011;6970;51.340;3.240;2023-04-03T14:56:51;10.27;;;1.90;;
13797;SDS011;6970;51.340;3.240;2023-04-03T14:59:19;9.87;;;1.97;;
13797;SDS011;6970;51.340;3.240;2023-04-03T15:01:48;7.97;;;1.77;;
13797;SDS011;6970;51.340;3.240;2023-04-03T15:04:16;3.23;;;1.20;;
13797;SDS011;6970;51.340;3.240;2023-04-03T15:06:45;2.20;;;1.40;;
13797;SDS011;6970;51.340;3.240;2023-04-03T15:09:20;3.47;;;1.27;;
13797;SDS011;6970;51.340;3.240;2023-04-03T15:11:53;5.20;;;1.30;;
13797;SDS011;6970;51.340;3.240;2023-04-03T15:14:21;10.13;;;1.93;;
13797;SDS011;6970;51.340;3.240;2023-04-03T15:17:06;7.17;;;1.73;;
13797;SDS011;6970;51.340;3.240;2023-04-03T15:19:37;6.27;;;1.20;;
13797;SDS011;6970;51.340;3.240;2023-04-03T15:22:05;4.27;;;1.33;;
13797;SDS011;6970;51.340;3.240;2023-04-03T15:24:33;4.93;;;1.33;;
13797;SDS011;6970;51.340;3.240;2023-04-03T15:27:00;8.93;;;1.57;;
13797;SDS011;6970;51.340;3.240;2023-04-03T15:29:27;4.03;;;1.00;;
13797;SDS011;6970;51.340;3.240;2023-04-03T15:31:54;4.40;;;0.93;;
13797;SDS011;6970;51.340;3.240;2023-04-03T15:34:22;3.77;;;1.40;;
13797;SDS011;6970;51.340;3.240;2023-04-03T15:36:49;12.97;;;1.60;;
13797;SDS011;6970;51.340;3.240;2023-04-03T15:39:19;6.53;;;1.40;;
13797;SDS011;6970;51.340;3.240;2023-04-03T15:41:47;2.53;;;0.90;;
13797;SDS011;6970;51.340;3.240;2023-04-03T15:44:14;2.63;;;1.13;;
13797;SDS011;6970;51.340;3.240;2023-04-03T15:46:44;1.67;;;0.70;;
13797;SDS011;6970;51.340;3.240;2023-04-03T15:49:12;1.33;;;0.70;;
13797;SDS011;6970;51.340;3.240;2023-04-03T15:51:39;5.07;;;1.27;;
13797;SDS011;6970;51.340;3.240;2023-04-03T15:54:06;3.63;;;1.23;;
13797;SDS011;6970;51.340;3.240;2023-04-03T15:56:33;3.93;;;1.03;;
13797;SDS011;6970;51.340;3.240;2023-04-03T15:59:01;4.67;;;0.90;;
13797;SDS011;6970;51.340;3.240;2023-04-03T16:01:28;10.10;;;1.50;;
13797;SDS011;6970;51.340;3.240;2023-04-03T16:03:55;6.33;;;1.40;;
13797;SDS011;6970;51.340;3.240;2023-04-03T16:06:22;12.47;;;1.53;;
13797;SDS011;6970;51.340;3.240;2023-04-03T16:08:51;5.60;;;1.47;;
13797;SDS011;6970;51.340;3.240;2023-04-03T16:11:26;5.63;;;1.80;;
13797;SDS011;6970;51.340;3.240;2023-04-03T16:13:53;8.30;;;1.77;;
13797;SDS011;6970;51.340;3.240;2023-04-03T16:16:21;4.37;;;1.40;;
13797;SDS011;6970;51.340;3.240;2023-04-03T16:18:49;3.63;;;1.20;;
13797;SDS011;6970;51.340;3.240;2023-04-03T16:21:17;5.40;;;1.67;;
13797;SDS011;6970;51.340;3.240;2023-04-03T16:23:44;2.07;;;1.00;;
13797;SDS011;6970;51.340;3.240;2023-04-03T16:26:11;1.53;;;1.00;;
13797;SDS011;6970;51.340;3.240;2023-04-03T16:28:38;1.13;;;0.80;;
13797;SDS011;6970;51.340;3.240;2023-04-03T16:31:05;1.77;;;1.10;;
13797;SDS011;6970;51.340;3.240;2023-04-03T16:33:33;1.00;;;0.90;;
13797;SDS011;6970;51.340;3.240;2023-04-03T16:36:01;2.20;;;1.00;;
13797;SDS011;6970;51.340;3.240;2023-04-03T16:38:30;1.43;;;1.00;;
13797;SDS011;6970;51.340;3.240;2023-04-03T16:40:57;1.90;;;1.20;;
13797;SDS011;6970;51.340;3.240;2023-04-03T16:43:26;3.80;;;1.17;;
13797;SDS011;6970;51.340;3.240;2023-04-03T16:45:53;1.53;;;1.00;;
13797;SDS011;6970;51.340;3.240;2023-04-03T16:48:20;4.53;;;1.10;;
13797;SDS011;6970;51.340;3.240;2023-04-03T16:50:47;3.00;;;1.00;;
13797;SDS011;6970;51.340;3.240;2023-04-03T16:53:15;1.30;;;1.00;;
13797;SDS011;6970;51.340;3.240;2023-04-03T16:55:42;2.93;;;1.00;;
13797;SDS011;6970;51.340;3.240;2023-04-03T16:58:09;2.60;;;1.17;;
13797;SDS011;6970;51.340;3.240;2023-04-03T17:00:36;1.80;;;1.20;;
13797;SDS011;6970;51.340;3.240;2023-04-03T17:03:03;3.37;;;1.60;;
13797;SDS011;6970;51.340;3.240;2023-04-03T17:05:30;6.47;;;1.70;;
13797;SDS011;6970;51.340;3.240;2023-04-03T17:07:58;6.83;;;1.80;;
13797;SDS011;6970;51.340;3.240;2023-04-03T17:10:25;5.67;;;1.70;;
13797;SDS011;6970;51.340;3.240;2023-04-03T17:12:52;2.17;;;1.90;;
13797;SDS011;6970;51.340;3.240;2023-04-03T17:15:20;6.00;;;2.10;;
13797;SDS011;6970;51.340;3.240;2023-04-03T17:17:47;13.67;;;2.50;;
13797;SDS011;6970;51.340;3.240;2023-04-03T17:20:15;7.83;;;2.07;;